SBOSBO PLS / MBPV
Speedbird OnlineSpeedbird Online PLS / MBPV

Providenciales Airport
08:37 24.1°C

Location Providenciales, Turks and Caicos Islands
Latitude: 21.77359962463379
Longitude: -72.26589965820312
Web Wikipedia
Altitude 5 Meter / 15 Feet
Distance 6,925 KM / 4,303 Miles
from London.
Time Zone UTC -5 hours (America/Grand_Turk)
Codes IATA: PLS
ICAO: MBPV
Currency £1 equals USD 1.24
Runways
RunwayLength (m)Surface
102804Asphalt
282804Asphalt
Radio
TypeDescriptionFrequency
APPPROVO APP126
GNDGND121.9
TWRTWR119.9
Live ATC
METAR MBPV 311300Z 09004KT 9999 FEW012 24/19 Q1020
TAF MBPV 311030Z 3112/0112 08010G20KT 9999 FEW018
Weather As Of 31 Jan 2023 08:37
Description Few clouds
Wind 7 km/h from East (90°)
Cloud Cover 20%
Precipitation Rain: none, Snow: none
Sunrise 06:27
Sunset 17:37
Rotations During the last 90 days there were
21 flights from NAS
4 flights from ANU
21 flights to NAS
3 flights to ANU



Support Speedbird Online

© 2017-2023 Speedbird Online